createdAt,value
2022-11-24T00:01:08.576Z,20.30
2022-11-24T00:03:35.579Z,17.25
2022-11-24T00:06:11.051Z,18.55
2022-11-24T00:08:39.584Z,13.68
2022-11-24T00:11:09.495Z,19.40
2022-11-24T00:13:38.970Z,18.63
2022-11-24T00:16:15.910Z,17.88
2022-11-24T00:18:44.024Z,22.05
2022-11-24T00:21:11.045Z,19.08
2022-11-24T00:23:38.079Z,19.33
2022-11-24T00:26:12.760Z,20.50
2022-11-24T00:28:41.794Z,18.02
2022-11-24T00:31:18.796Z,16.95
2022-11-24T00:33:47.207Z,16.88
2022-11-24T00:36:15.216Z,15.38
2022-11-24T00:38:41.841Z,16.33
2022-11-24T00:41:08.771Z,14.38
2022-11-24T00:43:35.180Z,15.00
2022-11-24T00:46:01.749Z,21.30
2022-11-24T00:48:28.296Z,18.08
2022-11-24T00:50:56.908Z,15.15
2022-11-24T00:53:23.353Z,19.65
2022-11-24T00:55:50.428Z,16.02
2022-11-24T00:58:16.999Z,17.02
2022-11-24T01:00:43.665Z,18.83
2022-11-24T01:03:10.212Z,17.27
2022-11-24T01:05:37.193Z,23.00
2022-11-24T01:08:03.883Z,14.85
2022-11-24T01:10:30.571Z,15.80
2022-11-24T01:12:57.259Z,15.63
2022-11-24T01:15:23.711Z,10.48
2022-11-24T01:17:50.114Z,15.32
2022-11-24T01:20:16.678Z,19.45
2022-11-24T01:22:43.530Z,13.23
2022-11-24T01:25:11.236Z,18.45
2022-11-24T01:27:38.314Z,18.95
2022-11-24T01:30:06.487Z,18.73
2022-11-24T01:32:33.907Z,17.10
2022-11-24T01:35:00.293Z,18.38
2022-11-24T01:37:26.684Z,14.82
2022-11-24T01:39:53.126Z,14.90
2022-11-24T01:42:19.628Z,16.70
2022-11-24T01:44:48.257Z,14.55
2022-11-24T01:47:17.864Z,18.13
2022-11-24T01:49:51.504Z,16.50
2022-11-24T01:52:27.076Z,14.88
2022-11-24T01:54:56.205Z,16.40
2022-11-24T01:57:30.010Z,11.30
2022-11-24T02:00:01.644Z,17.70
2022-11-24T02:02:29.879Z,13.05
2022-11-24T02:05:05.457Z,15.88
2022-11-24T02:07:32.984Z,13.90
2022-11-24T02:10:03.450Z,14.27
2022-11-24T02:12:30.241Z,14.30
2022-11-24T02:14:58.228Z,18.42
2022-11-24T02:17:24.648Z,16.40
2022-11-24T02:19:56.287Z,20.58
2022-11-24T02:22:51.867Z,18.33
2022-11-24T02:25:31.224Z,20.33
2022-11-24T02:28:00.155Z,15.45
2022-11-24T02:30:26.638Z,19.42
2022-11-24T02:32:53.844Z,21.13
2022-11-24T02:35:20.409Z,15.10
2022-11-24T02:37:46.775Z,16.48
2022-11-24T02:40:16.479Z,16.75
2022-11-24T02:42:46.520Z,12.85
2022-11-24T02:45:15.183Z,19.20
2022-11-24T02:47:41.601Z,14.23
2022-11-24T02:50:08.366Z,13.90
2022-11-24T02:52:34.761Z,14.77
2022-11-24T02:55:01.150Z,14.90
2022-11-24T02:57:27.524Z,19.45
2022-11-24T02:59:54.136Z,15.45
2022-11-24T03:02:20.787Z,16.00
2022-11-24T03:04:47.271Z,17.20
2022-11-24T03:07:14.550Z,19.20
2022-11-24T03:09:41.038Z,17.52
2022-11-24T03:12:07.569Z,15.07
2022-11-24T03:14:34.247Z,16.40
2022-11-24T03:17:00.816Z,16.23
2022-11-24T03:19:27.393Z,18.70
2022-11-24T03:21:53.792Z,18.95
2022-11-24T03:24:20.267Z,16.90
2022-11-24T03:26:46.681Z,16.60
2022-11-24T03:29:13.070Z,16.55
2022-11-24T03:31:39.561Z,18.15
2022-11-24T03:34:06.075Z,14.82
2022-11-24T03:36:32.438Z,18.85
2022-11-24T03:38:58.823Z,14.52
2022-11-24T03:41:25.230Z,21.67
2022-11-24T03:43:52.014Z,16.30
2022-11-24T03:46:18.831Z,19.02
2022-11-24T03:48:45.321Z,18.83
2022-11-24T03:51:11.887Z,12.50
2022-11-24T03:53:38.466Z,13.65
2022-11-24T03:56:05.213Z,13.05
2022-11-24T03:58:31.580Z,19.85
2022-11-24T04:00:58.133Z,19.40
2022-11-24T04:03:25.476Z,19.30
2022-11-24T04:05:52.022Z,15.48
2022-11-24T04:08:19.015Z,18.27
2022-11-24T04:10:50.016Z,26.27
2022-11-24T04:13:18.167Z,21.48
2022-11-24T04:15:44.891Z,19.48
2022-11-24T04:18:12.633Z,17.50
2022-11-24T04:20:40.940Z,19.90
2022-11-24T04:23:08.100Z,17.65
2022-11-24T04:25:35.295Z,17.33
2022-11-24T04:28:01.951Z,24.20
2022-11-24T04:30:29.328Z,13.68
2022-11-24T04:32:57.003Z,24.77
2022-11-24T04:35:23.740Z,20.75
2022-11-24T04:37:50.274Z,14.70
2022-11-24T04:40:17.053Z,18.58
2022-11-24T04:42:43.571Z,25.92
2022-11-24T04:45:10.969Z,23.20
2022-11-24T04:47:38.918Z,15.35
2022-11-24T04:50:07.578Z,18.60
2022-11-24T04:52:34.188Z,22.65
2022-11-24T04:55:00.616Z,27.63
2022-11-24T04:57:27.758Z,20.83
2022-11-24T04:59:55.062Z,29.75
2022-11-24T05:02:22.243Z,24.20
2022-11-24T05:04:49.439Z,21.75
2022-11-24T05:07:19.126Z,28.75
2022-11-24T05:10:05.993Z,18.80
2022-11-24T05:12:32.470Z,22.75
2022-11-24T05:15:00.273Z,22.23
2022-11-24T05:17:34.940Z,19.33
2022-11-24T05:20:01.659Z,20.10
2022-11-24T05:22:29.465Z,22.48
2022-11-24T05:24:55.981Z,18.58
2022-11-24T05:27:22.524Z,16.67
2022-11-24T05:29:49.052Z,23.65
2022-11-24T05:32:15.431Z,21.58
2022-11-24T05:34:41.822Z,18.25
2022-11-24T05:37:08.338Z,19.67
2022-11-24T05:39:36.064Z,19.40
2022-11-24T05:42:22.743Z,27.55
2022-11-24T05:44:49.147Z,22.38
2022-11-24T05:47:15.561Z,23.50
2022-11-24T05:49:42.055Z,26.45
2022-11-24T05:52:08.810Z,20.45
2022-11-24T05:54:35.430Z,23.20
2022-11-24T05:57:02.076Z,25.40
2022-11-24T05:59:28.651Z,19.58
2022-11-24T06:01:55.152Z,23.00
2022-11-24T06:04:21.896Z,23.55
2022-11-24T06:06:48.409Z,33.33
2022-11-24T06:09:14.808Z,24.30
2022-11-24T06:11:41.195Z,25.67
2022-11-24T06:14:11.090Z,24.73
2022-11-24T06:16:38.097Z,20.45
2022-11-24T06:19:04.786Z,19.70
2022-11-24T06:21:31.710Z,27.83
2022-11-24T06:23:59.460Z,23.80
2022-11-24T06:26:25.849Z,23.98
2022-11-24T06:28:52.219Z,20.73
2022-11-24T06:31:18.894Z,21.33
2022-11-24T06:33:45.618Z,16.60
2022-11-24T06:36:14.103Z,18.80
2022-11-24T06:38:40.690Z,20.27
2022-11-24T06:41:11.438Z,20.05
2022-11-24T06:43:38.278Z,18.73
2022-11-24T06:46:04.934Z,14.30
2022-11-24T06:48:31.695Z,13.30
2022-11-24T06:50:59.875Z,19.38
2022-11-24T06:53:26.301Z,18.10
2022-11-24T06:55:53.335Z,16.85
2022-11-24T06:58:19.729Z,14.45
2022-11-24T07:00:46.204Z,21.88
2022-11-24T07:03:17.083Z,18.33
2022-11-24T07:05:43.942Z,15.27
2022-11-24T07:08:16.152Z,18.80
2022-11-24T07:10:44.155Z,17.63
2022-11-24T07:13:10.614Z,15.52
2022-11-24T07:15:37.012Z,14.20
2022-11-24T07:18:03.541Z,14.85
2022-11-24T07:20:29.995Z,14.25
2022-11-24T07:22:57.821Z,9.45
2022-11-24T07:25:27.269Z,11.45
2022-11-24T07:28:00.227Z,14.27
2022-11-24T07:30:28.180Z,13.73
2022-11-24T07:33:02.063Z,10.57
2022-11-24T07:35:29.153Z,11.73
2022-11-24T07:37:56.837Z,7.90
2022-11-24T07:40:25.084Z,14.25
2022-11-24T07:42:51.739Z,8.60
2022-11-24T07:45:18.164Z,13.43
2022-11-24T07:47:44.573Z,7.97
2022-11-24T07:50:12.599Z,9.18
2022-11-24T07:52:40.421Z,11.35
2022-11-24T07:55:08.015Z,9.15
2022-11-24T07:57:34.859Z,5.03
2022-11-24T08:00:01.558Z,4.72
2022-11-24T08:02:31.256Z,5.90
2022-11-24T08:04:57.678Z,6.47
2022-11-24T08:07:24.336Z,5.70
2022-11-24T08:09:52.024Z,8.90
2022-11-24T08:12:21.700Z,5.93
2022-11-24T08:14:51.332Z,8.05
2022-11-24T08:17:18.066Z,5.55
2022-11-24T08:19:44.475Z,4.45
2022-11-24T08:22:11.301Z,7.13
2022-11-24T08:24:38.130Z,4.82
2022-11-24T08:27:04.518Z,5.90
2022-11-24T08:29:32.152Z,7.57
2022-11-24T08:31:58.766Z,12.32
2022-11-24T08:34:27.068Z,12.25
2022-11-24T08:36:53.595Z,7.50
2022-11-24T08:39:20.269Z,10.07
2022-11-24T08:41:46.640Z,14.82
2022-11-24T08:44:15.773Z,8.48
2022-11-24T08:46:42.187Z,5.07
2022-11-24T08:49:09.893Z,6.68
2022-11-24T08:51:37.015Z,6.85
2022-11-24T08:54:03.958Z,6.18
2022-11-24T08:56:32.077Z,6.70
2022-11-24T08:58:59.058Z,9.38
2022-11-24T09:01:26.759Z,12.70
2022-11-24T09:03:53.643Z,10.80
2022-11-24T09:06:23.355Z,9.98
2022-11-24T09:08:49.930Z,7.32
2022-11-24T09:11:17.534Z,9.35
2022-11-24T09:13:44.638Z,9.35
2022-11-24T09:16:14.293Z,8.45
2022-11-24T09:18:41.122Z,12.30
2022-11-24T09:21:16.009Z,11.00
2022-11-24T09:23:43.278Z,18.67
2022-11-24T09:26:15.994Z,7.68
2022-11-24T09:28:42.929Z,14.68
2022-11-24T09:31:14.589Z,11.40
2022-11-24T09:33:41.370Z,9.77
2022-11-24T09:36:08.366Z,8.77
2022-11-24T09:38:34.975Z,10.45
2022-11-24T09:41:55.777Z,10.07
2022-11-24T09:45:01.739Z,9.80
2022-11-24T09:47:34.775Z,9.85
2022-11-24T09:50:15.751Z,9.00
2022-11-24T09:52:51.771Z,13.00
2022-11-24T09:55:51.815Z,12.75
2022-11-24T09:58:27.389Z,11.88
2022-11-24T10:00:55.877Z,11.70
2022-11-24T10:03:28.202Z,12.02
2022-11-24T10:05:55.414Z,9.55
2022-11-24T10:08:24.472Z,9.40
2022-11-24T10:10:57.527Z,13.98
2022-11-24T10:13:37.106Z,11.13
2022-11-24T10:16:06.316Z,10.63
2022-11-24T10:19:07.323Z,11.82
2022-11-24T10:22:12.307Z,12.95
2022-11-24T10:25:12.302Z,12.65
2022-11-24T10:27:44.632Z,12.35
2022-11-24T10:30:18.224Z,11.48
2022-11-24T10:33:12.201Z,11.45
2022-11-24T10:38:22.185Z,8.65
2022-11-24T10:40:57.529Z,10.02
2022-11-24T10:43:28.823Z,10.07
2022-11-24T10:46:05.309Z,8.65
2022-11-24T10:48:40.663Z,12.02
2022-11-24T10:51:34.750Z,12.48
2022-11-24T10:56:41.246Z,12.02
2022-11-24T10:59:37.996Z,12.77
2022-11-24T11:02:35.255Z,11.45
2022-11-24T11:05:37.894Z,8.15
2022-11-24T11:08:13.944Z,8.70
2022-11-24T11:10:42.169Z,8.75
2022-11-24T11:13:28.420Z,12.65
2022-11-24T11:15:58.235Z,9.25
2022-11-24T11:18:33.280Z,12.00
2022-11-24T11:21:02.344Z,13.38
2022-11-24T11:23:32.206Z,9.60
2022-11-24T11:26:23.536Z,12.65
2022-11-24T11:34:49.552Z,20.45
2022-11-24T11:37:17.003Z,13.30
2022-11-24T11:39:49.111Z,14.57
2022-11-24T11:45:26.447Z,10.85
2022-11-24T11:48:02.698Z,15.60
2022-11-24T11:51:06.799Z,13.15
2022-11-24T11:54:00.727Z,10.30
2022-11-24T11:56:32.874Z,17.70
2022-11-24T11:59:11.446Z,15.18
2022-11-24T12:02:15.411Z,11.60
2022-11-24T12:04:52.796Z,14.80
2022-11-24T12:07:22.311Z,11.93
2022-11-24T12:10:01.485Z,14.40
2022-11-24T12:12:45.114Z,11.52
2022-11-24T12:15:30.136Z,11.05
2022-11-24T12:18:40.171Z,14.07
2022-11-24T12:21:23.083Z,11.45
2022-11-24T12:23:52.760Z,11.48
2022-11-24T12:26:24.646Z,13.52
2022-11-24T12:28:53.782Z,17.00
2022-11-24T12:31:32.749Z,15.43
2022-11-24T12:34:04.679Z,12.10
2022-11-24T12:36:44.917Z,9.77
2022-11-24T12:39:21.347Z,10.05
2022-11-24T12:42:06.409Z,13.63
2022-11-24T12:45:06.040Z,17.70
2022-11-24T12:47:54.082Z,12.50
2022-11-24T12:50:29.404Z,15.30
2022-11-24T12:53:13.568Z,11.70
2022-11-24T12:55:42.041Z,12.85
2022-11-24T12:58:32.493Z,16.25
2022-11-24T13:01:14.678Z,10.98
2022-11-24T13:04:06.975Z,15.30
2022-11-24T13:06:52.197Z,11.70
2022-11-24T13:09:19.299Z,13.73
2022-11-24T13:11:53.100Z,15.55
2022-11-24T13:14:28.622Z,11.20
2022-11-24T13:19:49.978Z,14.50
2022-11-24T13:22:24.469Z,13.80
2022-11-24T13:25:28.711Z,11.07
2022-11-24T13:30:35.800Z,11.60
2022-11-24T13:33:16.213Z,14.40
2022-11-24T13:36:29.666Z,12.95
2022-11-24T13:38:56.109Z,13.05
2022-11-24T13:41:31.245Z,15.90
2022-11-24T13:44:16.305Z,13.25
2022-11-24T13:47:01.782Z,11.27
2022-11-24T13:49:46.319Z,11.60
2022-11-24T13:52:34.638Z,41.08
2022-11-24T13:55:07.218Z,49.60
2022-11-24T13:57:38.791Z,25.73
2022-11-24T14:00:19.199Z,31.00
2022-11-24T14:02:46.519Z,16.00
2022-11-24T14:05:17.749Z,28.30
2022-11-24T14:07:45.690Z,14.50
2022-11-24T14:10:36.009Z,17.85
2022-11-24T14:13:25.459Z,14.68
2022-11-24T14:16:17.227Z,11.40
2022-11-24T14:18:48.917Z,12.20
2022-11-24T14:21:22.065Z,10.55
2022-11-24T14:23:54.820Z,17.08
2022-11-24T14:26:32.175Z,11.55
2022-11-24T14:29:15.551Z,12.43
2022-11-24T14:31:51.581Z,14.80
2022-11-24T14:34:21.092Z,14.27
2022-11-24T14:36:49.123Z,13.52
2022-11-24T14:39:22.856Z,10.85
2022-11-24T14:42:10.076Z,10.82
2022-11-24T14:44:45.534Z,14.20
2022-11-24T14:47:24.515Z,14.07
2022-11-24T14:49:54.503Z,12.80
2022-11-24T14:52:23.374Z,10.45
2022-11-24T14:55:17.346Z,11.90
2022-11-24T14:57:47.422Z,12.82
2022-11-24T15:00:17.290Z,11.43
2022-11-24T15:02:51.767Z,13.70
2022-11-24T15:05:23.926Z,11.95
2022-11-24T15:07:59.861Z,8.85
2022-11-24T15:10:35.215Z,13.07
2022-11-24T15:13:04.050Z,10.57
2022-11-24T15:15:33.416Z,13.02
2022-11-24T15:18:01.582Z,14.35
2022-11-24T15:20:35.019Z,14.05
2022-11-24T15:25:46.625Z,10.35
2022-11-24T15:28:13.024Z,10.30
2022-11-24T15:30:39.506Z,11.18
2022-11-24T15:33:17.880Z,11.18
2022-11-24T15:35:45.308Z,14.65
2022-11-24T15:38:12.072Z,12.60
2022-11-24T15:40:40.029Z,14.27
2022-11-24T15:43:17.217Z,14.65
2022-11-24T15:45:44.014Z,10.98
2022-11-24T15:48:13.548Z,15.15
2022-11-24T15:50:44.779Z,15.15
2022-11-24T15:53:20.046Z,14.38
2022-11-24T15:55:47.627Z,13.52
2022-11-24T15:58:14.747Z,11.18
2022-11-24T16:00:42.187Z,12.63
2022-11-24T16:03:44.274Z,14.98
2022-11-24T16:05:57.013Z,12.80
2022-11-24T16:08:23.585Z,10.80
2022-11-24T16:10:50.016Z,14.93
2022-11-24T16:13:16.499Z,16.83
2022-11-24T16:15:42.970Z,12.15
2022-11-24T16:18:09.386Z,13.60
2022-11-24T16:20:36.217Z,16.30
2022-11-24T16:23:04.118Z,14.65
2022-11-24T16:25:31.242Z,13.30
2022-11-24T16:27:57.832Z,19.80
2022-11-24T16:30:24.524Z,15.40
2022-11-24T16:32:50.918Z,12.40
2022-11-24T16:35:17.589Z,17.25
2022-11-24T16:37:44.546Z,10.63
2022-11-24T16:40:11.361Z,12.65
2022-11-24T16:42:37.808Z,17.35
2022-11-24T16:45:05.321Z,14.27
2022-11-24T16:47:31.772Z,10.95
2022-11-24T16:49:58.156Z,13.85
2022-11-24T16:52:25.738Z,15.65
2022-11-24T16:54:52.098Z,12.10
2022-11-24T16:57:18.495Z,13.25
2022-11-24T16:59:46.302Z,16.35
2022-11-24T17:02:13.436Z,15.30
2022-11-24T17:04:40.111Z,12.48
2022-11-24T17:07:07.649Z,11.65
2022-11-24T17:09:40.167Z,15.75
2022-11-24T17:12:07.293Z,18.02
2022-11-24T17:14:34.628Z,15.95
2022-11-24T17:17:01.301Z,19.98
2022-11-24T17:19:28.398Z,16.77
2022-11-24T17:21:54.916Z,14.95
2022-11-24T17:24:21.414Z,20.23
2022-11-24T17:26:50.138Z,16.42
2022-11-24T17:29:16.739Z,16.80
2022-11-24T17:31:43.216Z,15.90
2022-11-24T17:34:11.109Z,18.20
2022-11-24T17:36:38.401Z,16.00
2022-11-24T17:39:06.978Z,15.95
2022-11-24T17:41:33.809Z,19.10
2022-11-24T17:44:00.443Z,17.17
2022-11-24T17:46:28.526Z,18.15
2022-11-24T17:48:55.542Z,15.55
2022-11-24T17:51:24.312Z,16.63
2022-11-24T17:53:52.243Z,16.63
2022-11-24T17:56:22.872Z,18.42
2022-11-24T17:58:54.138Z,15.65
2022-11-24T18:01:21.174Z,14.90
2022-11-24T18:03:53.152Z,15.63
2022-11-24T18:06:21.152Z,12.57
2022-11-24T18:08:48.272Z,17.33
2022-11-24T18:11:23.563Z,14.07
2022-11-24T18:13:59.976Z,14.27
2022-11-24T18:16:29.760Z,13.02
2022-11-24T18:19:07.764Z,14.02
2022-11-24T18:21:37.583Z,17.27
2022-11-24T18:24:04.086Z,14.98
2022-11-24T18:26:30.621Z,12.10
2022-11-24T18:28:57.034Z,15.93
2022-11-24T18:31:23.473Z,15.00
2022-11-24T18:33:49.908Z,16.33
2022-11-24T18:36:18.904Z,10.73
2022-11-24T18:38:45.588Z,15.43
2022-11-24T18:41:14.138Z,12.93
2022-11-24T18:43:41.087Z,15.30
2022-11-24T18:46:11.230Z,18.42
2022-11-24T18:48:37.885Z,15.30
2022-11-24T18:51:04.834Z,15.82
2022-11-24T18:53:31.537Z,13.27
2022-11-24T18:55:59.995Z,16.92
2022-11-24T18:58:28.692Z,14.77
2022-11-24T19:01:07.988Z,16.80
2022-11-24T19:03:41.344Z,17.58
2022-11-24T19:06:14.167Z,16.30
2022-11-24T19:08:40.679Z,19.30
2022-11-24T19:11:07.297Z,19.05
2022-11-24T19:13:33.722Z,25.30
2022-11-24T19:16:01.226Z,17.75
2022-11-24T19:18:30.823Z,17.88
2022-11-24T19:20:58.082Z,15.05
2022-11-24T19:23:24.587Z,18.75
2022-11-24T19:25:50.973Z,11.90
2022-11-24T19:28:17.375Z,11.90
2022-11-24T19:30:45.240Z,15.40
2022-11-24T19:33:11.819Z,14.73
2022-11-24T19:35:38.175Z,12.77
2022-11-24T19:38:04.579Z,15.07
2022-11-24T19:40:30.985Z,15.38
2022-11-24T19:42:57.587Z,11.68
2022-11-24T19:45:23.987Z,15.82
2022-11-24T19:47:50.430Z,13.02
2022-11-24T19:50:16.822Z,12.57
2022-11-24T19:52:43.211Z,10.73
2022-11-24T19:55:09.796Z,13.93
2022-11-24T19:57:36.215Z,15.52
2022-11-24T20:00:02.769Z,13.38
2022-11-24T20:02:31.582Z,15.65
2022-11-24T20:04:58.106Z,15.07
2022-11-24T20:07:24.572Z,15.23
2022-11-24T20:09:50.963Z,13.70
2022-11-24T20:12:17.351Z,13.73
2022-11-24T20:14:43.728Z,15.40
2022-11-24T20:17:10.165Z,12.80
2022-11-24T20:19:36.583Z,18.15
2022-11-24T20:22:03.097Z,14.15
2022-11-24T20:24:29.476Z,17.65
2022-11-24T20:26:58.149Z,11.45
2022-11-24T20:29:24.668Z,17.63
2022-11-24T20:31:55.428Z,13.27
2022-11-24T20:34:23.164Z,14.55
2022-11-24T20:36:49.939Z,11.38
2022-11-24T20:39:20.702Z,21.35
2022-11-24T20:41:47.212Z,11.52
2022-11-24T20:44:16.273Z,14.13
2022-11-24T20:46:44.763Z,12.90
2022-11-24T20:49:14.877Z,15.98
2022-11-24T20:51:44.058Z,18.65
2022-11-24T20:54:12.801Z,13.95
2022-11-24T20:56:42.158Z,12.70
2022-11-24T20:59:12.086Z,15.05
2022-11-24T21:01:40.775Z,18.30
2022-11-24T21:04:09.901Z,15.00
2022-11-24T21:06:36.883Z,13.15
2022-11-24T21:09:04.491Z,9.30
2022-11-24T21:11:31.686Z,13.38
2022-11-24T21:13:59.152Z,13.68
2022-11-24T21:16:28.251Z,12.63
2022-11-24T21:18:57.243Z,14.00
2022-11-24T21:21:24.979Z,18.52
2022-11-24T21:23:51.753Z,13.75
2022-11-24T21:26:19.082Z,12.63
2022-11-24T21:28:47.194Z,17.08
2022-11-24T21:31:16.416Z,13.30
2022-11-24T21:33:45.357Z,14.70
2022-11-24T21:36:14.552Z,15.80
2022-11-24T21:38:42.621Z,15.90
2022-11-24T21:41:11.682Z,16.25
2022-11-24T21:43:38.532Z,14.27
2022-11-24T21:46:07.024Z,15.68
2022-11-24T21:48:34.711Z,13.75
2022-11-24T21:51:03.869Z,14.35
2022-11-24T21:53:32.739Z,14.52
2022-11-24T21:56:01.974Z,14.98
2022-11-24T21:58:29.069Z,12.07
2022-11-24T22:01:01.719Z,14.57
2022-11-24T22:03:28.244Z,16.45
2022-11-24T22:05:56.431Z,13.73
2022-11-24T22:08:24.091Z,18.50
2022-11-24T22:10:50.663Z,13.10
2022-11-24T22:13:17.538Z,16.40
2022-11-24T22:15:43.992Z,13.60
2022-11-24T22:18:10.618Z,14.88
2022-11-24T22:20:37.057Z,12.85
2022-11-24T22:23:03.485Z,10.45
2022-11-24T22:25:30.020Z,15.52
2022-11-24T22:27:57.877Z,17.60
2022-11-24T22:30:24.293Z,15.38
2022-11-24T22:32:50.662Z,19.83
2022-11-24T22:35:17.031Z,12.70
2022-11-24T22:37:43.420Z,15.18
2022-11-24T22:40:10.012Z,14.82
2022-11-24T22:42:36.385Z,17.05
2022-11-24T22:45:02.830Z,13.20
2022-11-24T22:47:29.191Z,15.00
2022-11-24T22:49:55.554Z,13.80
2022-11-24T22:52:21.921Z,14.65
2022-11-24T22:54:48.292Z,14.13
2022-11-24T22:57:14.658Z,18.27
2022-11-24T22:59:41.026Z,12.63
2022-11-24T23:02:07.407Z,13.18
2022-11-24T23:04:34.191Z,15.90
2022-11-24T23:07:00.751Z,16.30
2022-11-24T23:09:27.268Z,22.02
2022-11-24T23:11:53.638Z,17.17
2022-11-24T23:14:20.147Z,11.82
2022-11-24T23:16:46.568Z,18.20
2022-11-24T23:19:12.969Z,14.60
2022-11-24T23:21:39.451Z,19.40
2022-11-24T23:24:07.317Z,18.38
2022-11-24T23:26:37.115Z,18.85
2022-11-24T23:29:04.695Z,15.73
2022-11-24T23:31:31.505Z,18.50
2022-11-24T23:33:59.482Z,14.25
2022-11-24T23:36:27.188Z,14.50
2022-11-24T23:38:54.297Z,19.75
2022-11-24T23:41:25.436Z,23.00
2022-11-24T23:43:52.697Z,27.30
2022-11-24T23:46:21.628Z,26.13
2022-11-24T23:48:49.425Z,25.10
2022-11-24T23:51:24.613Z,24.20
2022-11-24T23:53:51.815Z,23.48
2022-11-24T23:56:32.218Z,22.13
2022-11-24T23:58:59.392Z,22.33
